createdAt,value
2023-03-05T00:00:13.014Z,99.60
2023-03-05T00:02:40.019Z,99.80
2023-03-05T00:05:07.261Z,99.70
2023-03-05T00:07:35.692Z,99.60
2023-03-05T00:10:04.744Z,99.40
2023-03-05T00:12:31.590Z,99.30
2023-03-05T00:14:58.489Z,99.20
2023-03-05T00:17:25.322Z,99.10
2023-03-05T00:19:52.248Z,99.00
2023-03-05T00:22:19.032Z,99.00
2023-03-05T00:24:49.922Z,98.90
2023-03-05T00:27:16.747Z,98.80
2023-03-05T00:29:43.584Z,98.80
2023-03-05T00:32:10.505Z,98.80
2023-03-05T00:34:37.447Z,98.90
2023-03-05T00:37:04.676Z,99.00
2023-03-05T00:39:31.491Z,99.00
2023-03-05T00:41:59.811Z,99.00
2023-03-05T00:44:26.699Z,99.00
2023-03-05T00:46:53.588Z,99.00
2023-03-05T00:49:20.703Z,99.00
2023-03-05T00:51:47.549Z,99.00
2023-03-05T00:54:14.512Z,98.90
2023-03-05T00:56:41.336Z,98.80
2023-03-05T00:59:09.864Z,98.70
2023-03-05T01:01:36.795Z,98.60
2023-03-05T01:04:03.918Z,98.50
2023-03-05T01:06:30.915Z,98.40
2023-03-05T01:08:59.083Z,98.40
2023-03-05T01:11:26.241Z,98.30
2023-03-05T01:13:53.090Z,98.30
2023-03-05T01:16:21.459Z,98.20
2023-03-05T01:18:48.316Z,98.20
2023-03-05T01:21:15.165Z,98.10
2023-03-05T01:23:42.039Z,98.00
2023-03-05T01:26:09.524Z,98.00
2023-03-05T01:28:38.128Z,97.90
2023-03-05T01:31:08.348Z,97.80
2023-03-05T01:33:36.540Z,97.80
2023-03-05T01:36:06.539Z,97.80
2023-03-05T01:38:33.376Z,97.70
2023-03-05T01:41:00.509Z,97.70
2023-03-05T01:43:29.617Z,97.70
2023-03-05T01:46:34.802Z,97.70
2023-03-05T01:49:15.726Z,97.60
2023-03-05T01:51:50.377Z,97.60
2023-03-05T01:54:20.670Z,97.50
2023-03-05T01:56:51.334Z,97.50
2023-03-05T01:59:19.126Z,97.40
2023-03-05T02:01:50.624Z,97.40
2023-03-05T02:04:20.051Z,97.30
2023-03-05T02:06:47.405Z,97.20
2023-03-05T02:09:14.776Z,97.10
2023-03-05T02:11:42.361Z,97.00
2023-03-05T02:14:10.418Z,96.90
2023-03-05T02:16:38.903Z,96.90
2023-03-05T02:19:08.112Z,96.80
2023-03-05T02:21:40.933Z,96.80
2023-03-05T02:24:11.730Z,96.70
2023-03-05T02:26:38.681Z,96.70
2023-03-05T02:29:09.311Z,96.70
2023-03-05T02:31:38.942Z,96.70
2023-03-05T02:34:06.460Z,96.70
2023-03-05T02:36:33.488Z,96.70
2023-03-05T02:39:01.644Z,96.80
2023-03-05T02:41:28.766Z,96.80
2023-03-05T02:43:55.637Z,96.80
2023-03-05T02:46:22.697Z,96.80
2023-03-05T02:48:49.999Z,96.90
2023-03-05T02:51:16.992Z,96.90
2023-03-05T02:53:43.964Z,96.90
2023-03-05T02:56:12.864Z,96.80
2023-03-05T02:58:39.877Z,96.80
2023-03-05T03:01:07.960Z,96.80
2023-03-05T03:03:34.979Z,96.80
2023-03-05T03:06:02.048Z,96.70
2023-03-05T03:08:28.854Z,97.10
2023-03-05T03:10:56.472Z,96.80
2023-03-05T03:13:25.360Z,96.80
2023-03-05T03:16:02.022Z,96.80
2023-03-05T03:18:28.895Z,96.80
2023-03-05T03:20:55.757Z,96.70
2023-03-05T03:23:22.679Z,96.70
2023-03-05T03:25:49.464Z,96.70
2023-03-05T03:28:16.410Z,96.80
2023-03-05T03:30:44.728Z,96.80
2023-03-05T03:33:11.659Z,96.80
2023-03-05T03:35:38.698Z,96.80
2023-03-05T03:38:05.562Z,96.80
2023-03-05T03:40:32.782Z,96.90
2023-03-05T03:42:59.611Z,96.80
2023-03-05T03:45:26.980Z,96.90
2023-03-05T03:47:55.221Z,96.90
2023-03-05T03:50:24.901Z,97.00
2023-03-05T03:52:52.085Z,97.00
2023-03-05T03:55:19.057Z,97.00
2023-03-05T03:57:45.974Z,97.00
2023-03-05T04:00:13.936Z,97.00
2023-03-05T04:02:40.911Z,97.00
2023-03-05T04:05:09.996Z,97.00
2023-03-05T04:07:39.937Z,97.00
2023-03-05T04:10:07.651Z,97.00
2023-03-05T04:12:34.472Z,96.90
2023-03-05T04:15:01.365Z,96.90
2023-03-05T04:17:28.238Z,96.90
2023-03-05T04:19:55.144Z,96.80
2023-03-05T04:22:23.340Z,96.80
2023-03-05T04:24:50.287Z,96.80
2023-03-05T04:27:17.169Z,96.70
2023-03-05T04:29:44.207Z,96.70
2023-03-05T04:32:11.050Z,96.60
2023-03-05T04:34:38.427Z,96.60
2023-03-05T04:37:05.566Z,96.60
2023-03-05T04:39:33.838Z,96.70
2023-03-05T04:42:00.760Z,96.70
2023-03-05T04:44:27.514Z,96.70
2023-03-05T04:46:54.321Z,96.70
2023-03-05T04:49:21.158Z,96.70
2023-03-05T04:51:48.129Z,96.60
2023-03-05T04:54:14.998Z,96.50
2023-03-05T04:56:43.147Z,96.40
2023-03-05T04:59:10.044Z,96.30
2023-03-05T05:01:37.518Z,96.30
2023-03-05T05:04:04.366Z,96.10
2023-03-05T05:06:31.252Z,96.00
2023-03-05T05:08:58.148Z,95.90
2023-03-05T05:11:24.974Z,95.80
2023-03-05T05:13:53.207Z,95.70
2023-03-05T05:16:20.298Z,95.60
2023-03-05T05:18:47.251Z,95.50
2023-03-05T05:21:15.214Z,95.40
2023-03-05T05:23:42.160Z,95.30
2023-03-05T05:26:14.175Z,95.20
2023-03-05T05:28:43.442Z,95.10
2023-03-05T05:31:13.609Z,95.10
2023-03-05T05:33:40.952Z,95.10
2023-03-05T05:36:10.832Z,95.00
2023-03-05T05:38:37.639Z,94.90
2023-03-05T05:41:05.330Z,94.80
2023-03-05T05:43:32.276Z,94.70
2023-03-05T05:46:00.816Z,94.70
2023-03-05T05:48:29.904Z,94.60
2023-03-05T05:50:57.252Z,94.60
2023-03-05T05:53:25.392Z,94.50
2023-03-05T05:55:52.608Z,94.60
2023-03-05T05:58:19.520Z,94.50
2023-03-05T06:00:46.375Z,94.50
2023-03-05T06:03:13.559Z,94.50
2023-03-05T06:05:43.293Z,94.60
2023-03-05T06:08:10.670Z,94.60
2023-03-05T06:10:37.524Z,94.70
2023-03-05T06:13:04.670Z,94.70
2023-03-05T06:15:31.863Z,94.70
2023-03-05T06:17:59.567Z,94.80
2023-03-05T06:20:28.391Z,94.70
2023-03-05T06:22:56.648Z,94.70
2023-03-05T06:25:23.619Z,94.70
2023-03-05T06:27:50.548Z,94.70
2023-03-05T06:30:17.724Z,94.70
2023-03-05T06:32:44.690Z,95.00
2023-03-05T06:35:11.884Z,94.50
2023-03-05T06:37:38.786Z,94.50
2023-03-05T06:40:08.700Z,94.40
2023-03-05T06:42:36.308Z,94.40
2023-03-05T06:45:03.619Z,94.40
2023-03-05T06:47:31.321Z,94.40
2023-03-05T06:49:58.328Z,94.30
2023-03-05T06:52:25.211Z,94.30
2023-03-05T06:54:55.618Z,94.30
2023-03-05T06:57:24.100Z,94.30
2023-03-05T06:59:50.983Z,94.30
2023-03-05T07:02:19.209Z,94.40
2023-03-05T07:04:46.468Z,94.40
2023-03-05T07:07:13.317Z,94.50
2023-03-05T07:09:42.912Z,94.50
2023-03-05T07:12:10.530Z,94.60
2023-03-05T07:14:39.277Z,94.60
2023-03-05T07:17:06.351Z,94.70
2023-03-05T07:19:33.652Z,94.80
2023-03-05T07:22:00.524Z,94.80
2023-03-05T07:24:29.923Z,94.80
2023-03-05T07:26:57.490Z,94.90
2023-03-05T07:29:24.602Z,95.00
2023-03-05T07:31:53.696Z,95.00
2023-03-05T07:34:21.382Z,95.10
2023-03-05T07:36:50.402Z,95.10
2023-03-05T07:39:19.584Z,95.20
2023-03-05T07:41:46.528Z,95.20
2023-03-05T07:44:13.530Z,95.20
2023-03-05T07:46:40.469Z,95.30
2023-03-05T07:49:08.672Z,95.30
2023-03-05T07:51:35.690Z,95.40
2023-03-05T07:54:02.851Z,95.50
2023-03-05T07:56:32.075Z,95.50
2023-03-05T07:58:59.906Z,95.60
2023-03-05T08:01:26.852Z,95.70
2023-03-05T08:03:53.734Z,95.70
2023-03-05T08:06:22.077Z,95.70
2023-03-05T08:08:49.138Z,95.80
2023-03-05T08:11:16.916Z,95.80
2023-03-05T08:13:44.978Z,95.80
2023-03-05T08:16:14.225Z,95.90
2023-03-05T08:18:41.382Z,95.90
2023-03-05T08:21:16.362Z,95.90
2023-03-05T08:23:44.680Z,95.90
2023-03-05T08:26:13.396Z,95.90
2023-03-05T08:28:40.218Z,96.00
2023-03-05T08:31:09.452Z,95.90
2023-03-05T08:33:36.521Z,96.00
2023-03-05T08:36:03.744Z,96.00
2023-03-05T08:38:30.783Z,96.00
2023-03-05T08:40:59.220Z,96.10
2023-03-05T08:43:26.040Z,96.10
2023-03-05T08:45:53.597Z,96.00
2023-03-05T08:48:20.861Z,96.00
2023-03-05T08:50:47.733Z,95.90
2023-03-05T08:53:14.735Z,95.90
2023-03-05T08:55:44.119Z,95.90
2023-03-05T08:58:14.792Z,95.80
2023-03-05T09:00:41.738Z,95.80
2023-03-05T09:03:09.839Z,95.80
2023-03-05T09:05:38.982Z,95.70
2023-03-05T09:08:05.967Z,95.60
2023-03-05T09:10:32.762Z,95.60
2023-03-05T09:12:59.682Z,95.60
2023-03-05T09:15:27.911Z,95.60
2023-03-05T09:17:54.852Z,95.60
2023-03-05T09:20:21.914Z,95.60
2023-03-05T09:22:48.778Z,95.60
2023-03-05T09:25:15.599Z,95.60
2023-03-05T09:27:43.834Z,95.60
2023-03-05T09:30:13.004Z,95.50
2023-03-05T09:32:41.387Z,95.50
2023-03-05T09:35:09.567Z,95.30
2023-03-05T09:37:36.642Z,95.30
2023-03-05T09:40:04.554Z,95.10
2023-03-05T09:42:45.663Z,95.00
2023-03-05T09:45:20.668Z,94.90
2023-03-05T09:47:57.107Z,94.90
2023-03-05T09:50:34.710Z,94.80
2023-03-05T09:53:06.193Z,94.70
2023-03-05T09:55:40.424Z,94.70
2023-03-05T09:58:12.807Z,94.70
2023-03-05T10:00:43.965Z,94.60
2023-03-05T10:03:17.645Z,94.50
2023-03-05T10:06:07.308Z,94.40
2023-03-05T10:08:46.410Z,94.30
2023-03-05T10:11:39.632Z,94.10
2023-03-05T10:14:13.778Z,93.90
2023-03-05T10:17:02.266Z,93.90
2023-03-05T10:19:47.441Z,93.70
2023-03-05T10:22:19.842Z,93.70
2023-03-05T10:24:59.887Z,93.70
2023-03-05T10:27:40.063Z,93.90
2023-03-05T10:30:20.771Z,93.50
2023-03-05T10:32:54.130Z,93.60
2023-03-05T10:36:11.176Z,93.60
2023-03-05T10:38:53.328Z,93.60
2023-03-05T10:41:29.235Z,93.60
2023-03-05T10:44:00.984Z,93.70
2023-03-05T10:46:34.588Z,93.70
2023-03-05T10:49:06.377Z,93.70
2023-03-05T10:51:36.362Z,93.70
2023-03-05T10:54:13.300Z,93.70
2023-03-05T10:56:40.282Z,93.70
2023-03-05T10:59:07.109Z,93.80
2023-03-05T11:01:34.314Z,93.80
2023-03-05T11:04:03.725Z,93.90
2023-03-05T11:06:36.639Z,94.00
2023-03-05T11:09:29.347Z,94.10
2023-03-05T11:12:12.060Z,94.30
2023-03-05T11:14:41.759Z,94.30
2023-03-05T11:17:30.636Z,94.40
2023-03-05T11:19:58.807Z,94.60
2023-03-05T11:22:26.043Z,94.70
2023-03-05T11:25:16.265Z,94.80
2023-03-05T11:27:51.567Z,94.90
2023-03-05T11:30:22.256Z,94.90
2023-03-05T11:32:49.223Z,95.00
2023-03-05T11:35:31.022Z,95.00
2023-03-05T11:38:01.414Z,95.10
2023-03-05T11:40:31.095Z,95.10
2023-03-05T11:43:00.587Z,95.10
2023-03-05T11:45:30.361Z,95.20
2023-03-05T11:48:01.706Z,95.20
2023-03-05T11:50:30.350Z,95.30
2023-03-05T11:53:00.127Z,95.40
2023-03-05T11:55:31.313Z,95.30
2023-03-05T11:58:12.761Z,95.40
2023-03-05T12:00:43.829Z,95.40
2023-03-05T12:03:15.122Z,95.50
2023-03-05T12:05:45.743Z,95.50
2023-03-05T12:08:15.694Z,95.50
2023-03-05T12:10:44.356Z,95.40
2023-03-05T12:13:19.803Z,95.40
2023-03-05T12:15:59.886Z,95.30
2023-03-05T12:18:38.692Z,95.30
2023-03-05T12:21:08.415Z,95.20
2023-03-05T12:23:47.197Z,95.10
2023-03-05T12:26:15.701Z,94.80
2023-03-05T12:28:55.855Z,94.70
2023-03-05T12:31:37.955Z,94.40
2023-03-05T12:34:56.224Z,94.20
2023-03-05T12:37:58.273Z,94.20
2023-03-05T12:40:26.352Z,94.00
2023-03-05T12:42:57.339Z,93.80
2023-03-05T12:45:40.212Z,93.70
2023-03-05T12:48:42.589Z,93.80
2023-03-05T12:51:36.091Z,93.70
2023-03-05T12:54:27.594Z,93.70
2023-03-05T12:56:56.412Z,93.60
2023-03-05T12:59:29.730Z,93.60
2023-03-05T13:01:59.345Z,93.40
2023-03-05T13:04:30.362Z,93.20
2023-03-05T13:07:02.067Z,93.10
2023-03-05T13:09:33.585Z,93.00
2023-03-05T13:12:02.696Z,93.00
2023-03-05T13:14:39.397Z,92.90
2023-03-05T13:17:25.821Z,92.80
2023-03-05T13:19:52.988Z,92.60
2023-03-05T13:22:19.861Z,92.50
2023-03-05T13:24:47.188Z,92.40
2023-03-05T13:27:21.192Z,92.30
2023-03-05T13:29:53.405Z,92.20
2023-03-05T13:32:25.883Z,92.10
2023-03-05T13:34:55.810Z,92.10
2023-03-05T13:37:25.834Z,92.00
2023-03-05T13:39:55.983Z,91.80
2023-03-05T13:42:25.750Z,91.80
2023-03-05T13:44:59.186Z,91.80
2023-03-05T13:47:28.682Z,91.70
2023-03-05T13:49:57.407Z,91.70
2023-03-05T13:52:25.201Z,91.60
2023-03-05T13:54:52.175Z,91.80
2023-03-05T13:57:34.921Z,91.80
2023-03-05T14:00:04.283Z,91.80
2023-03-05T14:02:33.336Z,91.90
2023-03-05T14:05:00.609Z,91.90
2023-03-05T14:07:33.628Z,91.80
2023-03-05T14:10:00.783Z,91.80
2023-03-05T14:12:33.487Z,91.80
2023-03-05T14:15:02.436Z,91.90
2023-03-05T14:17:37.326Z,92.00
2023-03-05T14:20:19.680Z,92.10
2023-03-05T14:22:50.804Z,92.10
2023-03-05T14:25:30.065Z,92.20
2023-03-05T14:27:57.557Z,92.20
2023-03-05T14:30:26.026Z,92.20
2023-03-05T14:32:55.792Z,92.30
2023-03-05T14:35:25.413Z,92.40
2023-03-05T14:37:54.661Z,92.40
2023-03-05T14:40:26.991Z,92.50
2023-03-05T14:42:55.937Z,92.60
2023-03-05T14:45:25.532Z,92.70
2023-03-05T14:47:56.081Z,93.00
2023-03-05T14:50:24.649Z,92.70
2023-03-05T14:52:54.453Z,92.80
2023-03-05T14:55:24.497Z,92.80
2023-03-05T14:57:54.069Z,92.80
2023-03-05T15:00:23.010Z,92.80
2023-03-05T15:02:50.440Z,93.10
2023-03-05T15:05:19.745Z,92.80
2023-03-05T15:07:47.580Z,92.80
2023-03-05T15:10:15.744Z,92.80
2023-03-05T15:12:44.143Z,92.90
2023-03-05T15:15:13.704Z,92.80
2023-03-05T15:17:43.078Z,92.90
2023-03-05T15:20:15.995Z,93.00
2023-03-05T15:22:44.267Z,93.00
2023-03-05T15:25:11.891Z,93.10
2023-03-05T15:27:41.034Z,93.10
2023-03-05T15:30:21.490Z,93.10
2023-03-05T15:32:48.863Z,93.20
2023-03-05T15:35:15.833Z,93.50
2023-03-05T15:37:44.202Z,93.20
2023-03-05T15:40:12.408Z,93.20
2023-03-05T15:42:39.661Z,93.30
2023-03-05T15:45:07.574Z,93.40
2023-03-05T15:47:34.682Z,93.40
2023-03-05T15:50:01.816Z,93.40
2023-03-05T15:52:28.720Z,93.30
2023-03-05T15:54:56.970Z,93.40
2023-03-05T15:57:23.988Z,93.20
2023-03-05T15:59:50.909Z,93.20
2023-03-05T16:02:18.790Z,93.20
2023-03-05T16:04:45.732Z,93.20
2023-03-05T16:07:14.341Z,93.20
2023-03-05T16:09:45.779Z,93.10
2023-03-05T16:12:18.098Z,93.10
2023-03-05T16:14:45.922Z,93.10
2023-03-05T16:17:14.350Z,93.10
2023-03-05T16:19:44.332Z,93.10
2023-03-05T16:22:11.177Z,93.10
2023-03-05T16:24:38.220Z,93.10
2023-03-05T16:27:05.355Z,93.20
2023-03-05T16:29:33.835Z,93.20
2023-03-05T16:32:02.506Z,93.30
2023-03-05T16:34:29.469Z,93.30
2023-03-05T16:36:56.408Z,93.30
2023-03-05T16:39:23.464Z,93.40
2023-03-05T16:41:50.924Z,93.40
2023-03-05T16:44:17.773Z,93.50
2023-03-05T16:46:49.159Z,93.50
2023-03-05T16:49:16.070Z,93.50
2023-03-05T16:51:42.865Z,93.60
2023-03-05T16:54:10.207Z,93.60
2023-03-05T16:56:37.273Z,93.70
2023-03-05T16:59:04.406Z,93.70
2023-03-05T17:01:31.736Z,93.80
2023-03-05T17:04:00.599Z,93.90
2023-03-05T17:06:29.627Z,93.90
2023-03-05T17:08:56.852Z,94.00
2023-03-05T17:11:25.715Z,94.00
2023-03-05T17:13:52.986Z,94.00
2023-03-05T17:16:20.624Z,94.00
2023-03-05T17:18:47.930Z,94.00
2023-03-05T17:21:16.637Z,94.00
2023-03-05T17:23:43.962Z,93.90
2023-03-05T17:26:13.460Z,93.90
2023-03-05T17:28:40.394Z,93.90
2023-03-05T17:31:07.731Z,94.00
2023-03-05T17:33:35.443Z,93.90
2023-03-05T17:36:03.587Z,94.00
2023-03-05T17:38:32.252Z,94.00
2023-03-05T17:40:59.220Z,94.00
2023-03-05T17:43:26.195Z,94.00
2023-03-05T17:45:53.126Z,94.00
2023-03-05T17:48:20.035Z,94.00
2023-03-05T17:50:46.913Z,94.00
2023-03-05T17:53:14.045Z,94.00
2023-03-05T17:55:42.422Z,94.00
2023-03-05T17:58:09.474Z,94.00
2023-03-05T18:00:36.899Z,94.00
2023-03-05T18:03:04.872Z,94.00
2023-03-05T18:05:32.462Z,94.00
2023-03-05T18:08:00.677Z,94.10
2023-03-05T18:10:28.164Z,94.10
2023-03-05T18:12:56.906Z,94.10
2023-03-05T18:15:28.915Z,94.20
2023-03-05T18:17:56.385Z,94.20
2023-03-05T18:20:26.599Z,94.60
2023-03-05T18:22:53.568Z,94.20
2023-03-05T18:25:20.577Z,94.30
2023-03-05T18:27:47.619Z,94.30
2023-03-05T18:30:17.391Z,94.30
2023-03-05T18:32:45.485Z,94.30
2023-03-05T18:35:13.993Z,94.30
2023-03-05T18:37:40.890Z,94.30
2023-03-05T18:40:09.716Z,94.30
2023-03-05T18:42:37.070Z,94.30
2023-03-05T18:45:04.812Z,94.30
2023-03-05T18:47:33.417Z,94.20
2023-03-05T18:50:00.346Z,94.20
2023-03-05T18:52:27.200Z,94.20
2023-03-05T18:54:55.172Z,94.20
2023-03-05T18:57:21.958Z,94.20
2023-03-05T18:59:48.812Z,94.30
2023-03-05T19:02:16.390Z,94.20
2023-03-05T19:04:44.713Z,94.20
2023-03-05T19:07:11.681Z,94.30
2023-03-05T19:09:52.057Z,94.30
2023-03-05T19:12:19.797Z,94.30
2023-03-05T19:14:46.929Z,94.30
2023-03-05T19:17:13.831Z,94.40
2023-03-05T19:19:42.804Z,94.40
2023-03-05T19:22:11.654Z,94.40
2023-03-05T19:24:39.099Z,94.40
2023-03-05T19:27:13.470Z,94.40
2023-03-05T19:29:41.672Z,94.40
2023-03-05T19:32:10.865Z,94.40
2023-03-05T19:34:37.978Z,94.50
2023-03-05T19:37:05.809Z,94.50
2023-03-05T19:39:34.441Z,94.50
2023-03-05T19:42:01.576Z,94.50
2023-03-05T19:44:28.537Z,94.60
2023-03-05T19:46:55.520Z,94.60
2023-03-05T19:49:23.039Z,94.70
2023-03-05T19:51:50.181Z,94.70
2023-03-05T19:54:20.537Z,94.70
2023-03-05T19:56:49.189Z,94.70
2023-03-05T19:59:20.999Z,95.10
2023-03-05T20:01:48.750Z,94.80
2023-03-05T20:04:18.057Z,94.80
2023-03-05T20:06:45.158Z,94.90
2023-03-05T20:09:12.009Z,94.90
2023-03-05T20:11:38.894Z,94.90
2023-03-05T20:14:08.068Z,95.00
2023-03-05T20:16:37.523Z,95.00
2023-03-05T20:19:05.904Z,95.00
2023-03-05T20:21:34.473Z,95.00
2023-03-05T20:24:03.853Z,95.10
2023-03-05T20:26:31.051Z,95.10
2023-03-05T20:28:58.227Z,95.10
2023-03-05T20:31:28.139Z,95.10
2023-03-05T20:33:56.252Z,95.10
2023-03-05T20:36:23.403Z,95.10
2023-03-05T20:38:50.388Z,95.10
2023-03-05T20:41:20.599Z,95.20
2023-03-05T20:43:49.516Z,95.20
2023-03-05T20:46:18.468Z,95.20
2023-03-05T20:48:50.407Z,95.20
2023-03-05T20:51:19.092Z,95.30
2023-03-05T20:53:46.202Z,95.30
2023-03-05T20:56:13.112Z,95.30
2023-03-05T20:58:40.033Z,95.20
2023-03-05T21:01:07.066Z,95.20
2023-03-05T21:03:34.089Z,95.20
2023-03-05T21:06:04.511Z,95.20
2023-03-05T21:08:31.558Z,95.10
2023-03-05T21:10:59.068Z,95.10
2023-03-05T21:13:26.315Z,95.10
2023-03-05T21:15:53.280Z,95.10
2023-03-05T21:18:20.235Z,95.10
2023-03-05T21:20:47.086Z,95.20
2023-03-05T21:23:15.761Z,95.20
2023-03-05T21:25:42.886Z,95.20
2023-03-05T21:28:12.468Z,95.20
2023-03-05T21:30:43.562Z,95.20
2023-03-05T21:33:12.717Z,95.20
2023-03-05T21:35:40.664Z,95.20
2023-03-05T21:38:08.516Z,95.20
2023-03-05T21:40:43.447Z,95.20
2023-03-05T21:43:10.885Z,95.20
2023-03-05T21:45:37.910Z,95.30
2023-03-05T21:48:05.775Z,95.30
2023-03-05T21:50:35.609Z,95.30
2023-03-05T21:53:03.164Z,95.40
2023-03-05T21:55:42.988Z,95.40
2023-03-05T21:58:11.187Z,95.40
2023-03-05T22:00:38.173Z,95.40
2023-03-05T22:03:05.093Z,95.60
2023-03-05T22:05:31.899Z,95.70
2023-03-05T22:07:58.789Z,95.70
2023-03-05T22:10:25.874Z,95.80
2023-03-05T22:13:03.045Z,95.80
2023-03-05T22:15:31.437Z,95.80
2023-03-05T22:17:58.291Z,95.90
2023-03-05T22:20:25.311Z,95.80
2023-03-05T22:22:52.389Z,95.90
2023-03-05T22:25:19.253Z,96.00
2023-03-05T22:27:46.132Z,96.00
2023-03-05T22:30:13.916Z,96.00
2023-03-05T22:32:42.093Z,96.10
2023-03-05T22:35:12.788Z,96.10
2023-03-05T22:37:41.432Z,96.10
2023-03-05T22:40:09.985Z,96.10
2023-03-05T22:42:36.846Z,96.50
2023-03-05T22:45:04.241Z,96.10
2023-03-05T22:47:31.377Z,96.10
2023-03-05T22:49:59.882Z,96.10
2023-03-05T22:52:26.922Z,96.10
2023-03-05T22:54:55.991Z,96.20
2023-03-05T22:57:22.974Z,96.20
2023-03-05T22:59:49.980Z,96.20
2023-03-05T23:02:17.171Z,96.20
2023-03-05T23:04:50.346Z,96.30
2023-03-05T23:07:20.598Z,96.30
2023-03-05T23:09:51.850Z,96.30
2023-03-05T23:12:18.829Z,96.40
2023-03-05T23:14:45.625Z,96.30
2023-03-05T23:17:12.491Z,96.40
2023-03-05T23:19:39.947Z,96.40
2023-03-05T23:22:08.667Z,96.40
2023-03-05T23:24:37.218Z,96.50
2023-03-05T23:27:07.544Z,96.50
2023-03-05T23:29:47.228Z,96.50
2023-03-05T23:32:14.152Z,96.50
2023-03-05T23:34:40.962Z,96.50
2023-03-05T23:37:07.849Z,96.60
2023-03-05T23:39:36.107Z,96.60
2023-03-05T23:42:03.019Z,96.60
2023-03-05T23:44:29.847Z,96.60
2023-03-05T23:46:56.728Z,96.60
2023-03-05T23:49:23.549Z,96.70
2023-03-05T23:51:50.418Z,96.70
2023-03-05T23:54:17.193Z,96.70
2023-03-05T23:56:45.397Z,96.70
2023-03-05T23:59:12.242Z,96.80
